createdAt,value
2018-02-15T00:02:18.206Z,-1.70
2018-02-15T00:04:46.086Z,-1.80
2018-02-15T00:07:13.642Z,-1.80
2018-02-15T00:09:41.300Z,-1.90
2018-02-15T00:12:08.908Z,-1.90
2018-02-15T00:14:37.434Z,-1.90
2018-02-15T00:17:04.978Z,-1.90
2018-02-15T00:19:32.521Z,-1.90
2018-02-15T00:22:00.815Z,-1.90
2018-02-15T00:24:28.386Z,-1.90
2018-02-15T00:26:55.959Z,-2.00
2018-02-15T00:29:23.869Z,-1.90
2018-02-15T00:31:52.181Z,-1.90
2018-02-15T00:34:19.737Z,-1.90
2018-02-15T00:36:47.331Z,-2.00
2018-02-15T00:39:14.870Z,-2.00
2018-02-15T00:41:42.455Z,-1.90
2018-02-15T00:44:10.296Z,-1.90
2018-02-15T00:46:37.930Z,-1.80
2018-02-15T00:49:05.481Z,-1.80
2018-02-15T00:51:33.298Z,-1.70
2018-02-15T00:54:00.845Z,-1.80
2018-02-15T00:56:28.395Z,-1.90
2018-02-15T00:58:57.102Z,-2.00
2018-02-15T01:01:24.650Z,-2.00
2018-02-15T01:03:52.193Z,-2.00
2018-02-15T01:06:20.467Z,-2.00
2018-02-15T01:08:48.014Z,-2.10
2018-02-15T01:11:15.794Z,-2.20
2018-02-15T01:13:43.534Z,-2.30
2018-02-15T01:16:11.081Z,-2.50
2018-02-15T01:18:38.632Z,-2.50
2018-02-15T01:21:07.289Z,-2.70
2018-02-15T01:23:34.917Z,-2.70
2018-02-15T01:26:02.471Z,-2.70
2018-02-15T01:28:30.094Z,-2.70
2018-02-15T01:30:57.617Z,-2.80
2018-02-15T01:33:25.170Z,-2.80
2018-02-15T01:35:53.049Z,-2.90
2018-02-15T01:38:20.678Z,-2.90
2018-02-15T01:40:48.229Z,-3.00
2018-02-15T01:43:16.594Z,-3.00
2018-02-15T01:45:44.136Z,-3.00
2018-02-15T01:48:12.459Z,-3.10
2018-02-15T01:50:40.661Z,-3.10
2018-02-15T01:53:08.208Z,-3.10
2018-02-15T01:55:35.761Z,-3.10
2018-02-15T01:58:03.545Z,-3.20
2018-02-15T02:00:33.018Z,-3.20
2018-02-15T02:03:00.610Z,-3.20
2018-02-15T02:05:28.493Z,-3.30
2018-02-15T02:07:56.046Z,-3.30
2018-02-15T02:10:24.365Z,-3.40
2018-02-15T02:12:52.197Z,-3.40
2018-02-15T02:15:19.753Z,-3.40
2018-02-15T02:17:47.307Z,-3.40
2018-02-15T02:20:15.439Z,-3.30
2018-02-15T02:22:43.036Z,-3.30
2018-02-15T02:25:12.596Z,-3.30
2018-02-15T02:27:40.657Z,-3.30
2018-02-15T02:30:08.214Z,-3.30
2018-02-15T02:32:35.770Z,-3.40
2018-02-15T02:35:03.698Z,-3.40
2018-02-15T02:37:31.530Z,-3.50
2018-02-15T02:39:59.096Z,-3.50
2018-02-15T02:42:26.946Z,-3.60
2018-02-15T02:44:54.546Z,-3.70
2018-02-15T02:47:22.085Z,-3.70
2018-02-15T02:49:50.061Z,-3.70
2018-02-15T02:52:17.608Z,-3.90
2018-02-15T02:54:45.155Z,-3.90
2018-02-15T02:57:13.221Z,-4.00
2018-02-15T02:59:40.760Z,-4.00
2018-02-15T03:02:09.497Z,-4.20
2018-02-15T03:04:37.841Z,-4.20
2018-02-15T03:07:05.380Z,-4.20
2018-02-15T03:09:33.703Z,-4.30
2018-02-15T03:12:01.480Z,-4.30
2018-02-15T03:14:29.019Z,-4.30
2018-02-15T03:16:56.561Z,-4.30
2018-02-15T03:19:24.674Z,-4.30
2018-02-15T03:21:52.215Z,-4.30
2018-02-15T03:24:19.958Z,-4.30
2018-02-15T03:26:47.527Z,-4.40
2018-02-15T03:29:15.076Z,-4.40
2018-02-15T03:31:42.615Z,-4.40
2018-02-15T03:34:11.261Z,-4.40
2018-02-15T03:36:39.286Z,-4.40
2018-02-15T03:39:06.826Z,-4.40
2018-02-15T03:41:35.471Z,-4.20
2018-02-15T03:44:03.007Z,-4.20
2018-02-15T03:46:30.543Z,-4.10
2018-02-15T03:48:58.655Z,-3.90
2018-02-15T03:51:26.199Z,-3.80
2018-02-15T03:53:53.739Z,-3.70
2018-02-15T03:56:21.863Z,-3.60
2018-02-15T03:58:49.408Z,-3.50
2018-02-15T04:01:17.132Z,-3.30
2018-02-15T04:03:44.729Z,-3.00
2018-02-15T04:06:12.267Z,-2.90
2018-02-15T04:08:39.804Z,-2.70
2018-02-15T04:11:07.614Z,-2.60
2018-02-15T04:13:35.889Z,-2.50
2018-02-15T04:16:03.422Z,-2.40
2018-02-15T04:18:30.955Z,-2.30
2018-02-15T04:20:58.667Z,-2.30
2018-02-15T04:23:26.208Z,-2.30
2018-02-15T04:25:53.756Z,-2.30
2018-02-15T04:28:21.404Z,-2.30
2018-02-15T04:30:48.944Z,-2.30
2018-02-15T04:33:17.248Z,-2.10
2018-02-15T04:35:45.048Z,-2.10
2018-02-15T04:38:12.885Z,-2.00
2018-02-15T04:40:40.455Z,-1.80
2018-02-15T04:43:08.404Z,-1.80
2018-02-15T04:45:35.943Z,-1.80
2018-02-15T04:48:04.247Z,-1.60
2018-02-15T04:50:32.295Z,-1.70
2018-02-15T04:53:00.607Z,-1.60
2018-02-15T04:55:28.139Z,-1.60
2018-02-15T04:57:55.920Z,-1.60
2018-02-15T05:00:23.456Z,-1.40
2018-02-15T05:02:52.123Z,-1.40
2018-02-15T05:05:21.163Z,-1.20
2018-02-15T05:07:48.700Z,-1.20
2018-02-15T05:10:16.412Z,-1.20
2018-02-15T05:12:43.958Z,-1.20
2018-02-15T05:15:11.593Z,-1.10
2018-02-15T05:17:39.168Z,-1.20
2018-02-15T05:20:06.700Z,-1.20
2018-02-15T05:22:34.242Z,-1.20
2018-02-15T05:25:01.969Z,-1.20
2018-02-15T05:27:29.505Z,-1.20
2018-02-15T05:29:57.041Z,-1.20
2018-02-15T05:32:25.789Z,-1.20
2018-02-15T05:34:53.323Z,-1.20
2018-02-15T05:37:20.864Z,-1.20
2018-02-15T05:39:48.558Z,-1.20
2018-02-15T05:42:16.114Z,-1.20
2018-02-15T05:44:44.092Z,-1.20
2018-02-15T05:47:11.712Z,-1.20
2018-02-15T05:49:39.241Z,-1.20
2018-02-15T05:52:07.899Z,-1.30
2018-02-15T05:54:35.435Z,-1.30
2018-02-15T05:57:03.336Z,-1.30
2018-02-15T05:59:32.310Z,-1.40
2018-02-15T06:01:59.841Z,-1.40
2018-02-15T06:04:27.761Z,-1.50
2018-02-15T06:06:55.306Z,-1.60
2018-02-15T06:09:22.999Z,-1.70
2018-02-15T06:11:51.644Z,-1.90
2018-02-15T06:14:19.189Z,-1.90
2018-02-15T06:16:47.891Z,-2.00
2018-02-15T06:19:15.787Z,-2.00
2018-02-15T06:21:43.368Z,-2.00
2018-02-15T06:24:10.964Z,-2.10
2018-02-15T06:26:38.702Z,-2.20
2018-02-15T06:29:06.285Z,-2.20
2018-02-15T06:31:33.856Z,-2.30
2018-02-15T06:34:01.856Z,-2.30
2018-02-15T06:36:29.428Z,-2.20
2018-02-15T06:38:57.005Z,-2.10
2018-02-15T06:41:24.850Z,-2.10
2018-02-15T06:43:55.793Z,-1.90
2018-02-15T06:46:24.444Z,-1.80
2018-02-15T06:48:52.164Z,-1.90
2018-02-15T06:51:19.746Z,-1.80
2018-02-15T06:53:49.015Z,-1.80
2018-02-15T06:56:17.376Z,-1.80
2018-02-15T06:58:45.708Z,-1.80
2018-02-15T07:01:13.280Z,-1.80
2018-02-15T07:03:41.997Z,-1.90
2018-02-15T07:06:10.333Z,-1.90
2018-02-15T07:08:37.897Z,-2.00
2018-02-15T07:11:06.008Z,-2.00
2018-02-15T07:13:34.357Z,-2.00
2018-02-15T07:16:02.118Z,-2.00
2018-02-15T07:18:31.678Z,-1.90
2018-02-15T07:20:59.294Z,-1.90
2018-02-15T07:23:27.126Z,-1.80
2018-02-15T07:25:56.123Z,-1.70
2018-02-15T07:28:23.721Z,-1.60
2018-02-15T07:30:51.316Z,-1.50
2018-02-15T07:33:18.951Z,-1.40
2018-02-15T07:35:50.105Z,-1.30
2018-02-15T07:38:18.511Z,-1.20
2018-02-15T07:40:46.544Z,-1.10
2018-02-15T07:43:14.116Z,-1.00
2018-02-15T07:45:44.355Z,-1.00
2018-02-15T07:48:12.133Z,-0.90
2018-02-15T07:50:39.852Z,-0.80
2018-02-15T07:53:07.429Z,-0.80
2018-02-15T07:55:35.041Z,-0.70
2018-02-15T07:58:02.612Z,-0.70
2018-02-15T08:12:57.480Z,-0.50
2018-02-15T08:15:25.141Z,-0.50
2018-02-15T08:17:52.719Z,-0.40
2018-02-15T08:20:20.605Z,-0.30
2018-02-15T08:22:48.181Z,-0.30
2018-02-15T08:25:17.228Z,-0.20
2018-02-15T08:27:45.064Z,-0.20
2018-02-15T08:30:12.638Z,-0.10
2018-02-15T08:32:40.201Z,0.00
2018-02-15T08:35:07.949Z,0.00
2018-02-15T08:37:35.527Z,0.10
2018-02-15T08:40:03.103Z,0.20
2018-02-15T08:42:30.996Z,0.30
2018-02-15T08:45:01.945Z,0.40
2018-02-15T08:47:30.276Z,0.40
2018-02-15T08:49:57.904Z,0.40
2018-02-15T08:52:25.701Z,0.50
2018-02-15T08:54:53.274Z,0.60
2018-02-15T08:57:21.281Z,0.60
2018-02-15T08:59:49.612Z,0.80
2018-02-15T09:02:17.187Z,0.80
2018-02-15T11:39:24.664Z,4.10
2018-02-15T11:41:52.234Z,4.10
2018-02-15T11:44:19.797Z,3.90
2018-02-15T11:46:47.601Z,3.80
2018-02-15T11:49:15.172Z,3.80
2018-02-15T11:51:42.736Z,3.60
2018-02-15T11:54:11.124Z,3.60
2018-02-15T11:56:38.704Z,3.60
2018-02-15T11:59:13.212Z,3.70
2018-02-15T12:01:40.808Z,3.60
2018-02-15T12:04:08.372Z,3.60
2018-02-15T12:06:36.128Z,3.40
2018-02-15T12:09:05.124Z,3.50
2018-02-15T12:11:33.097Z,3.80
2018-02-15T12:14:00.665Z,3.90
2018-02-15T12:16:30.047Z,3.90
2018-02-15T12:18:57.609Z,4.40
2018-02-15T12:21:25.181Z,4.60
2018-02-15T12:23:52.992Z,4.30
2018-02-15T12:26:21.421Z,4.00
2018-02-15T12:28:48.988Z,4.00
2018-02-15T12:31:17.658Z,3.90
2018-02-15T12:33:45.224Z,3.80
2018-02-15T12:36:12.784Z,3.90
2018-02-15T12:38:40.793Z,4.00
2018-02-15T12:41:08.329Z,4.00
2018-02-15T12:43:35.869Z,3.70
2018-02-15T12:46:03.545Z,3.50
2018-02-15T12:48:31.186Z,3.50
2018-02-15T12:51:01.971Z,3.40
2018-02-15T12:53:30.590Z,3.30
2018-02-15T12:55:58.473Z,3.30
2018-02-15T12:58:26.078Z,3.30
2018-02-15T13:00:59.253Z,2.80
2018-02-15T13:03:26.797Z,2.90
2018-02-15T13:05:54.389Z,2.70
2018-02-15T13:08:22.004Z,2.60
2018-02-15T13:10:49.541Z,2.50
2018-02-15T13:13:35.273Z,2.50
2018-02-15T13:16:14.650Z,2.30
2018-02-15T13:18:43.012Z,3.40
2018-02-15T13:21:16.485Z,3.70
2018-02-15T13:23:44.376Z,3.70
2018-02-15T13:26:12.685Z,3.30
2018-02-15T13:28:40.225Z,3.30
2018-02-15T13:31:07.831Z,3.10
2018-02-15T13:33:35.378Z,2.80
2018-02-15T13:36:03.384Z,2.70
2018-02-15T13:38:30.982Z,2.60
2018-02-15T13:41:01.822Z,2.60
2018-02-15T13:43:29.360Z,2.60
2018-02-15T13:45:57.817Z,2.60
2018-02-15T13:48:25.407Z,2.60
2018-02-15T13:50:53.721Z,2.50
2018-02-15T13:53:21.418Z,2.50
2018-02-15T13:55:48.959Z,2.50
2018-02-15T13:58:16.500Z,2.60
2018-02-15T14:00:44.414Z,2.40
2018-02-15T14:03:11.965Z,2.40
2018-02-15T14:05:39.521Z,2.30
2018-02-15T14:08:07.409Z,2.40
2018-02-15T14:10:35.722Z,2.50
2018-02-15T14:13:03.274Z,2.50
2018-02-15T14:15:30.884Z,2.50
2018-02-15T14:17:58.426Z,2.40
2018-02-15T14:20:25.978Z,2.30
2018-02-15T14:22:53.589Z,2.30
2018-02-15T14:25:21.938Z,2.20
2018-02-15T14:27:49.479Z,2.20
2018-02-15T14:30:17.170Z,2.20
2018-02-15T14:32:44.764Z,2.30
2018-02-15T14:35:13.120Z,2.10
2018-02-15T14:37:40.781Z,2.00
2018-02-15T14:40:11.777Z,2.00
2018-02-15T14:42:39.344Z,2.00
2018-02-15T14:45:07.054Z,1.80
2018-02-15T14:47:35.370Z,1.60
2018-02-15T14:50:07.321Z,1.60
2018-02-15T14:52:35.797Z,1.50
2018-02-15T14:55:04.109Z,1.30
2018-02-15T14:57:31.708Z,1.30
2018-02-15T15:00:02.460Z,1.20
2018-02-15T15:02:30.765Z,1.20
2018-02-15T15:04:58.304Z,1.20
2018-02-15T15:07:26.233Z,1.20
2018-02-15T15:09:54.885Z,1.10
2018-02-15T15:12:22.430Z,1.10
2018-02-15T15:14:50.015Z,1.10
2018-02-15T15:17:17.571Z,1.00
2018-02-15T15:19:46.141Z,0.90
2018-02-15T15:22:14.614Z,0.90
2018-02-15T15:24:42.525Z,0.90
2018-02-15T15:27:10.073Z,0.80
2018-02-15T15:29:37.615Z,0.90
2018-02-15T15:32:05.518Z,0.80
2018-02-15T15:34:33.072Z,0.90
2018-02-15T15:37:00.631Z,0.80
2018-02-15T15:39:31.985Z,0.90
2018-02-15T15:41:59.529Z,0.80
2018-02-15T15:44:27.078Z,0.90
2018-02-15T15:46:54.701Z,0.90
2018-02-15T15:49:22.585Z,0.90
2018-02-15T15:51:50.149Z,0.80
2018-02-15T15:54:17.951Z,0.70
2018-02-15T15:56:45.609Z,0.70
2018-02-15T15:59:14.441Z,0.70
2018-02-15T16:01:42.040Z,0.70
2018-02-15T16:04:09.591Z,0.70
2018-02-15T16:06:37.156Z,0.60
2018-02-15T16:09:04.956Z,0.60
2018-02-15T16:11:37.781Z,0.70
2018-02-15T16:14:06.093Z,0.70
2018-02-15T16:16:33.641Z,0.70
2018-02-15T16:19:04.174Z,0.70
2018-02-15T16:21:31.841Z,0.60
2018-02-15T16:23:59.391Z,0.70
2018-02-15T16:26:27.391Z,0.70
2018-02-15T16:28:54.933Z,0.80
2018-02-15T16:31:22.484Z,0.70
2018-02-15T16:33:50.585Z,0.70
2018-02-15T16:36:18.132Z,0.70
2018-02-15T16:38:45.684Z,0.70
2018-02-15T16:41:13.375Z,0.80
2018-02-15T16:43:40.923Z,0.80
2018-02-15T16:46:08.850Z,0.80
2018-02-15T16:48:36.453Z,0.70
2018-02-15T16:51:14.063Z,0.80
2018-02-15T16:53:41.673Z,0.80
2018-02-15T16:56:09.341Z,0.70
2018-02-15T16:58:36.877Z,0.80
2018-02-15T17:01:05.062Z,0.90
2018-02-15T17:03:32.649Z,0.80
2018-02-15T17:06:00.229Z,0.70
2018-02-15T17:08:27.797Z,0.60
2018-02-15T17:10:58.088Z,0.70
2018-02-15T17:13:25.646Z,0.60
2018-02-15T17:15:53.326Z,0.60
2018-02-15T17:18:20.975Z,0.50
2018-02-15T17:20:48.527Z,0.60
2018-02-15T17:23:16.312Z,0.60
2018-02-15T17:25:43.852Z,0.60
2018-02-15T17:28:11.398Z,0.60
2018-02-15T17:30:49.330Z,0.60
2018-02-15T17:33:16.952Z,0.60
2018-02-15T17:35:44.517Z,0.60
2018-02-15T17:38:12.318Z,0.50
2018-02-15T17:40:43.465Z,0.50
2018-02-15T17:43:11.013Z,0.50
2018-02-15T17:45:40.659Z,0.40
2018-02-15T17:48:08.966Z,0.50
2018-02-15T17:50:36.509Z,0.50
2018-02-15T17:53:04.054Z,0.40
2018-02-15T17:55:32.413Z,0.30
2018-02-15T17:57:59.950Z,0.20
2018-02-15T18:00:27.520Z,0.20
2018-02-15T18:02:55.292Z,0.20
2018-02-15T18:05:23.885Z,0.10
2018-02-15T18:07:52.199Z,0.00
2018-02-15T18:10:25.390Z,0.00
2018-02-15T18:12:52.941Z,-0.10
2018-02-15T18:15:21.253Z,-0.10
2018-02-15T18:17:49.066Z,-0.10
2018-02-15T18:20:16.625Z,-0.10
2018-02-15T18:22:44.947Z,-0.30
2018-02-15T18:25:12.681Z,-0.30
2018-02-15T18:27:40.993Z,-0.30
2018-02-15T18:30:08.755Z,-0.30
2018-02-15T18:32:36.367Z,-0.30
2018-02-15T18:35:03.925Z,-0.30
2018-02-15T18:37:31.469Z,-0.30
2018-02-15T18:39:59.225Z,-0.20
2018-02-15T18:42:34.583Z,-0.30
2018-02-15T18:45:03.671Z,-0.40
2018-02-15T18:47:31.224Z,-0.40
2018-02-15T18:49:58.761Z,-0.40
2018-02-15T18:52:30.211Z,-0.30
2018-02-15T18:55:04.886Z,-0.40
2018-02-15T18:57:36.825Z,-0.50
2018-02-15T19:00:05.284Z,-0.50
2018-02-15T19:02:32.941Z,-0.60
2018-02-15T19:05:04.482Z,-0.60
2018-02-15T19:07:32.185Z,-0.50
2018-02-15T19:09:59.736Z,-0.40
2018-02-15T19:12:33.466Z,-0.50
2018-02-15T19:15:01.303Z,-0.60
2018-02-15T19:17:28.869Z,-0.60
2018-02-15T19:19:56.416Z,-0.60
2018-02-15T19:22:24.687Z,-0.60
2018-02-15T19:24:52.267Z,-0.60
2018-02-15T19:27:19.833Z,-0.60
2018-02-15T19:29:47.693Z,-0.70
2018-02-15T19:32:18.021Z,-0.80
2018-02-15T19:34:45.681Z,-0.80
2018-02-15T19:37:13.361Z,-0.80
2018-02-15T19:39:40.913Z,-0.70
2018-02-15T19:42:11.739Z,-0.80
2018-02-15T19:44:39.405Z,-0.80
2018-02-15T19:47:07.032Z,-0.80
2018-02-15T19:49:34.581Z,-0.90
2018-02-15T19:52:02.419Z,-1.00
2018-02-15T19:54:30.731Z,-1.00
2018-02-15T19:57:07.158Z,-1.00
2018-02-15T19:59:35.469Z,-1.20
2018-02-15T20:02:03.022Z,-1.20
2018-02-15T20:04:33.697Z,-1.20
2018-02-15T20:07:02.485Z,-1.20
2018-02-15T20:09:30.031Z,-1.20
2018-02-15T20:11:58.013Z,-1.20
2018-02-15T20:14:25.573Z,-1.20
2018-02-15T20:16:53.149Z,-1.30
2018-02-15T20:19:21.147Z,-1.20
2018-02-15T20:21:53.171Z,-1.30
2018-02-15T20:24:20.716Z,-1.40
2018-02-15T20:26:54.243Z,-1.50
2018-02-15T20:29:21.859Z,-1.50
2018-02-15T20:31:59.716Z,-1.60
2018-02-15T20:34:28.256Z,-1.50
2018-02-15T20:36:55.801Z,-1.60
2018-02-15T20:39:29.159Z,-1.50
2018-02-15T20:41:57.468Z,-1.60
2018-02-15T20:44:25.010Z,-1.60
2018-02-15T20:46:53.381Z,-1.60
2018-02-15T20:49:27.234Z,-1.60
2018-02-15T20:52:00.461Z,-1.60
2018-02-15T20:54:33.698Z,-1.70
2018-02-15T20:57:01.293Z,-1.60
2018-02-15T20:59:28.837Z,-1.60
2018-02-15T21:01:56.488Z,-1.70
2018-02-15T21:04:24.220Z,-1.70
2018-02-15T21:06:52.533Z,-1.70
2018-02-15T21:09:20.261Z,-1.70
2018-02-15T21:11:50.082Z,-1.70
2018-02-15T21:14:20.122Z,-1.80
2018-02-15T21:16:47.719Z,-1.70
2018-02-15T21:19:18.573Z,-1.70
2018-02-15T21:21:46.901Z,-1.80
2018-02-15T21:24:16.012Z,-1.80
2018-02-15T21:26:46.973Z,-1.70
2018-02-15T21:29:16.026Z,-1.70
2018-02-15T21:31:43.573Z,-1.70
2018-02-15T21:34:14.974Z,-1.80
2018-02-15T21:36:46.209Z,-1.80
2018-02-15T21:39:13.762Z,-1.90
2018-02-15T21:41:44.525Z,-2.00
2018-02-15T21:44:12.065Z,-2.00
2018-02-15T21:46:39.611Z,-2.00
2018-02-15T21:49:13.441Z,-2.00
2018-02-15T21:51:40.990Z,-1.90
2018-02-15T21:54:08.543Z,-1.90
2018-02-15T21:56:37.065Z,-1.90
2018-02-15T21:59:05.382Z,-1.80
2018-02-15T22:01:33.148Z,-1.80
2018-02-15T22:04:00.729Z,-1.80
2018-02-15T22:06:28.273Z,-1.80
2018-02-15T22:08:58.822Z,-1.90
2018-02-15T22:11:26.370Z,-1.90
2018-02-15T22:13:53.949Z,-1.80
2018-02-15T22:16:22.012Z,-1.70
2018-02-15T22:18:49.539Z,-1.50
2018-02-15T22:21:17.075Z,-1.40
2018-02-15T22:23:45.595Z,-1.30
2018-02-15T22:26:15.951Z,-1.30
2018-02-15T22:28:43.484Z,-1.20
2018-02-15T22:31:12.110Z,-1.10
2018-02-15T22:33:40.411Z,-1.10
2018-02-15T22:36:08.995Z,-1.00
2018-02-15T22:38:38.498Z,-1.00
2018-02-15T22:41:06.027Z,-1.00
2018-02-15T22:43:34.324Z,-0.90
2018-02-15T22:46:04.124Z,-0.80
2018-02-15T22:48:32.836Z,-0.80
2018-02-15T22:51:00.823Z,-0.80
2018-02-15T22:53:29.279Z,-0.80
2018-02-15T22:55:56.815Z,-0.80
2018-02-15T22:58:24.347Z,-0.80
2018-02-15T23:00:54.455Z,-0.70
2018-02-15T23:03:22.616Z,-0.80
2018-02-15T23:05:50.174Z,-0.70
2018-02-15T23:08:19.700Z,-0.80
2018-02-15T23:10:47.233Z,-0.80
2018-02-15T23:13:14.775Z,-0.80
2018-02-15T23:15:42.494Z,-0.80
2018-02-15T23:18:10.031Z,-0.70
2018-02-15T23:20:37.563Z,-0.70
2018-02-15T23:23:05.484Z,-0.70
2018-02-15T23:25:33.020Z,-0.60
2018-02-15T23:28:00.565Z,-0.60
2018-02-15T23:30:28.855Z,-0.60
2018-02-15T23:32:57.640Z,-0.60
2018-02-15T23:35:25.179Z,-0.60
2018-02-15T23:37:54.311Z,-0.50
2018-02-15T23:40:21.844Z,-0.60
2018-02-15T23:42:49.384Z,-0.50
2018-02-15T23:45:18.267Z,-0.50
2018-02-15T23:47:45.805Z,-0.50
2018-02-15T23:50:14.103Z,-0.40
2018-02-15T23:52:41.788Z,-0.40
2018-02-15T23:55:09.315Z,-0.30
2018-02-15T23:57:38.204Z,-0.40
